Flight Track Log - Related Links

Times and Time Zones

All times are in EDT time to prevent confusion due to time zone crossing. See the N449ND flight status page for this flight to view local times or setup timezone preferences in your user account.

Time Position Orientation Groundspeed Altitude Reporting Facility
EDT Latitude Longitude Course Direction KTS MPH feet Rate Location/Type
Thu 12:46:42 PM 27.4981 -80.3617 328° Northwest 90 104 600  Level Miami Center
Thu 12:47:42 PM 27.4922 -80.3428 109° East 79 91 1,200 600 Climbing Miami Center
Thu 12:48:42 PM 27.4947 -80.3242 81° East 66 76 1,800 600 Climbing Miami Center
Thu 12:49:42 PM 27.5097 -80.3081 44° Northeast 59 68 2,400 550 Climbing Miami Center
Thu 12:50:42 PM 27.5250 -80.2900 46° Northeast 64 74 2,900 350 Climbing Miami Center
Thu 12:51:00 PM 27.4975 -80.3726 152° Southeast  Level Estimated
Thu 12:51:42 PM 27.5400 -80.2717 47° Northeast 70 81 3,100  Level Miami Center
Thu 12:52:00 PM 27.5014 -80.3754 328° Northwest  Level FlightAware Approximate
Thu 12:52:42 PM 27.5572 -80.2511 47° Northeast 76 87 3,100  Level Miami Center
Thu 12:53:42 PM 27.5742 -80.2328 44° Northeast 81 93 3,100  Level Miami Center
Thu 12:54:42 PM 27.5975 -80.2217 23° Northeast 83 96 3,100 -50 Level Miami Center
Thu 12:55:42 PM 27.6092 -80.2525 293° West 69 79 3,000 -50 Descending Miami Center
Thu 12:56:42 PM 27.6167 -80.2881 283° West 99 114 3,000  Level Miami Center
Thu 12:57:42 PM 27.6264 -80.3211 288° West 116 133 3,000  Level Miami Center
Thu 12:58:42 PM 27.6406 -80.3425 307° West 116 133 3,000  Level Miami Center
Thu 12:59:42 PM 27.6733 -80.3694 324° Northwest 106 122 3,000  Level Miami Center
Thu 01:00:42 PM 27.7000 -80.3867 330° Northwest 106 122 3,000  Level Miami Center
Thu 01:01:42 PM 27.7244 -80.4061 325° Northwest 106 122 3,000  Level Miami Center
Thu 01:02:42 PM 27.7492 -80.4256 325° Northwest 106 122 3,000  Level Miami Center
Thu 01:03:42 PM 27.7781 -80.4431 332° Northwest 106 122 3,000  Level Miami Center
Thu 01:04:42 PM 27.7897 -80.4739 293° West 111 128 3,000  Level Miami Center
Thu 01:05:42 PM 27.7950 -80.5117 279° West 117 135 3,000  Level Miami Center
Thu 01:06:42 PM 27.7900 -80.5419 259° West 117 135 3,000  Level Miami Center
Thu 01:07:42 PM 27.7725 -80.5742 238° Southwest 122 140 3,000  Level Miami Center
Thu 01:08:42 PM 27.7469 -80.5969 218° Southwest 117 135 3,000 -50 Level Miami Center
Thu 01:09:42 PM 27.7217 -80.6008 188° South 101 116 2,900 -450 Descending Miami Center
Thu 01:10:42 PM 27.7078 -80.5814 129° Southeast 77 89 2,100 -700 Descending Miami Center
Thu 01:11:42 PM 27.7019 -80.5603 107° East 82 94 1,500 -500 Descending Miami Center
Thu 01:12:42 PM 27.6942 -80.5364 110° East 82 94 1,100 -150 Descending Miami Center
Thu 01:13:42 PM 27.6844 -80.5103 113° Southeast 77 89 1,200  Climbing Miami Center
Thu 01:14:42 PM 27.6767 -80.4892 113° Southeast 72 83 1,100 -200 Descending Miami Center
Thu 01:15:42 PM 27.6708 -80.4700 109° East 72 83 800 -350 Descending Miami Center
Thu 01:16:42 PM 27.6628 -80.4533 119° Southeast 72 83 400 -150 Descending Miami Center
Thu 01:17:42 PM 27.6553 -80.4275 108° East 72 83 500 350 Climbing Miami Center
Thu 01:18:42 PM 27.6722 -80.4186 25° Northeast 47 54 1,100 600 Climbing Miami Center
Thu 01:19:42 PM 27.6972 -80.4194 358° North 67 77 1,700 600 Climbing Miami Center
Thu 01:20:42 PM 27.7158 -80.4175 North 79 91 2,300 550 Climbing Miami Center
Thu 01:21:42 PM 27.7389 -80.4161 North 79 91 2,800 350 Climbing Miami Center
Thu 01:22:42 PM 27.7486 -80.4444 291° West 77 89 3,000 100 Climbing Miami Center
Thu 01:23:42 PM 27.7375 -80.4792 250° West 108 124 3,000  Level Miami Center
Thu 01:24:42 PM 27.7261 -80.5142 250° West 116 133 3,000  Level Miami Center
Thu 01:25:42 PM 27.7128 -80.5442 243° Southwest 121 139 3,000  Level Miami Center
Thu 01:26:42 PM 27.6914 -80.5622 217° Southwest 112 129 3,000 -400 Level Miami Center
Thu 01:27:42 PM 27.6597 -80.5728 196° South 105 121 2,200 -500 Descending Miami Center
Thu 01:28:42 PM 27.6328 -80.5744 183° South 105 121 2,000 -200 Descending Miami Center
Thu 01:29:42 PM 27.6014 -80.5756 182° South 105 121 1,800 -100 Descending Miami Center
Thu 01:30:42 PM 27.5742 -80.5794 187° South 105 121 1,800  Level Miami Center
Thu 01:31:42 PM 27.5428 -80.5808 182° South 105 121 1,800  Level Miami Center
Thu 01:32:42 PM 27.5181 -80.5706 160° South 91 105 1,800  Level Miami Center
Thu 01:33:42 PM 27.5122 -80.5469 106° East 75 86 1,800  Level Miami Center
Thu 01:34:42 PM 27.5067 -80.5211 104° East 80 92 1,800  Level Miami Center
Thu 01:35:42 PM 27.4967 -80.4997 118° Southeast 80 92 1,800 -100 Level Miami Center
Thu 01:36:42 PM 27.4975 -80.4764 88° East 67 77 1,600 -300 Descending Miami Center
Thu 01:37:42 PM 27.4978 -80.4578 89° East 67 77 1,200 -350 Descending Miami Center
Thu 01:38:42 PM 27.4983 -80.4367 88° East 67 77 900 -300 Descending Miami Center
Thu 01:39:42 PM 27.4989 -80.4156 88° East 67 77 600 -300 Descending Miami Center
Thu 01:40:42 PM 27.4972 -80.3944 95° East 67 77 300 1,200 Descending Miami Center
Thu 01:41:42 PM 27.4978 -80.3758 88° East 67 77 3,000 2,700 Climbing Miami Center

Login

Don't have an account? Register now (free) for customized features, flight alerts, and more!